sensor_id;sensor_type;location;lat;lon;timestamp;P1;durP1;ratioP1;P2;durP2;ratioP2
16866;SDS011;8550;52.596;13.320;2023-07-29T00:01:36;7.57;;;3.63;;
16866;SDS011;8550;52.596;13.320;2023-07-29T00:06:40;6.75;;;2.80;;
16866;SDS011;8550;52.596;13.320;2023-07-29T00:11:43;6.60;;;2.55;;
16866;SDS011;8550;52.596;13.320;2023-07-29T00:16:45;8.10;;;2.50;;
16866;SDS011;8550;52.596;13.320;2023-07-29T00:21:47;7.60;;;2.87;;
16866;SDS011;8550;52.596;13.320;2023-07-29T00:26:50;5.57;;;2.55;;
16866;SDS011;8550;52.596;13.320;2023-07-29T00:31:52;5.88;;;3.10;;
16866;SDS011;8550;52.596;13.320;2023-07-29T00:36:53;5.97;;;2.73;;
16866;SDS011;8550;52.596;13.320;2023-07-29T00:41:57;5.15;;;2.33;;
16866;SDS011;8550;52.596;13.320;2023-07-29T00:46:59;6.20;;;2.80;;
16866;SDS011;8550;52.596;13.320;2023-07-29T00:52:04;8.70;;;2.80;;
16866;SDS011;8550;52.596;13.320;2023-07-29T00:57:07;5.32;;;2.42;;
16866;SDS011;8550;52.596;13.320;2023-07-29T01:02:10;5.72;;;2.67;;
16866;SDS011;8550;52.596;13.320;2023-07-29T01:07:14;6.10;;;2.90;;
16866;SDS011;8550;52.596;13.320;2023-07-29T01:12:24;6.07;;;2.23;;
16866;SDS011;8550;52.596;13.320;2023-07-29T01:17:35;6.20;;;2.88;;
16866;SDS011;8550;52.596;13.320;2023-07-29T01:22:42;6.18;;;2.38;;
16866;SDS011;8550;52.596;13.320;2023-07-29T01:27:46;5.60;;;2.43;;
16866;SDS011;8550;52.596;13.320;2023-07-29T01:32:53;5.60;;;2.60;;
16866;SDS011;8550;52.596;13.320;2023-07-29T01:37:57;6.75;;;2.80;;
16866;SDS011;8550;52.596;13.320;2023-07-29T01:43:05;9.67;;;3.00;;
16866;SDS011;8550;52.596;13.320;2023-07-29T01:48:08;5.60;;;3.00;;
16866;SDS011;8550;52.596;13.320;2023-07-29T01:53:10;8.35;;;2.58;;
16866;SDS011;8550;52.596;13.320;2023-07-29T01:58:13;7.73;;;3.10;;
16866;SDS011;8550;52.596;13.320;2023-07-29T02:03:15;5.90;;;3.07;;
16866;SDS011;8550;52.596;13.320;2023-07-29T02:08:17;5.55;;;2.90;;
16866;SDS011;8550;52.596;13.320;2023-07-29T02:13:20;5.70;;;2.80;;
16866;SDS011;8550;52.596;13.320;2023-07-29T02:18:22;7.60;;;3.20;;
16866;SDS011;8550;52.596;13.320;2023-07-29T02:23:24;8.85;;;2.92;;
16866;SDS011;8550;52.596;13.320;2023-07-29T02:28:27;6.65;;;2.70;;
16866;SDS011;8550;52.596;13.320;2023-07-29T02:33:29;6.53;;;3.20;;
16866;SDS011;8550;52.596;13.320;2023-07-29T02:38:31;6.70;;;2.88;;
16866;SDS011;8550;52.596;13.320;2023-07-29T02:43:35;6.15;;;2.80;;
16866;SDS011;8550;52.596;13.320;2023-07-29T02:48:37;6.03;;;3.07;;
16866;SDS011;8550;52.596;13.320;2023-07-29T02:53:38;5.93;;;3.03;;
16866;SDS011;8550;52.596;13.320;2023-07-29T02:58:42;6.50;;;3.42;;
16866;SDS011;8550;52.596;13.320;2023-07-29T03:03:44;8.20;;;3.10;;
16866;SDS011;8550;52.596;13.320;2023-07-29T03:08:46;6.00;;;2.80;;
16866;SDS011;8550;52.596;13.320;2023-07-29T03:13:50;8.13;;;3.60;;
16866;SDS011;8550;52.596;13.320;2023-07-29T03:18:52;9.43;;;3.60;;
16866;SDS011;8550;52.596;13.320;2023-07-29T03:23:54;16.93;;;8.83;;
16866;SDS011;8550;52.596;13.320;2023-07-29T03:28:57;13.98;;;6.05;;
16866;SDS011;8550;52.596;13.320;2023-07-29T03:34:00;10.88;;;5.18;;
16866;SDS011;8550;52.596;13.320;2023-07-29T03:39:02;10.60;;;4.70;;
16866;SDS011;8550;52.596;13.320;2023-07-29T03:44:05;8.13;;;4.07;;
16866;SDS011;8550;52.596;13.320;2023-07-29T03:49:07;8.80;;;4.38;;
16866;SDS011;8550;52.596;13.320;2023-07-29T03:54:09;7.88;;;3.97;;
16866;SDS011;8550;52.596;13.320;2023-07-29T03:59:15;6.97;;;3.70;;
16866;SDS011;8550;52.596;13.320;2023-07-29T04:04:17;7.55;;;4.43;;
16866;SDS011;8550;52.596;13.320;2023-07-29T04:09:18;9.48;;;3.88;;
16866;SDS011;8550;52.596;13.320;2023-07-29T04:14:22;7.93;;;4.20;;
16866;SDS011;8550;52.596;13.320;2023-07-29T04:19:25;8.02;;;4.53;;
16866;SDS011;8550;52.596;13.320;2023-07-29T04:24:27;7.63;;;3.97;;
16866;SDS011;8550;52.596;13.320;2023-07-29T04:29:30;8.17;;;4.47;;
16866;SDS011;8550;52.596;13.320;2023-07-29T04:34:32;12.23;;;4.83;;
16866;SDS011;8550;52.596;13.320;2023-07-29T04:39:34;8.20;;;4.60;;
16866;SDS011;8550;52.596;13.320;2023-07-29T04:44:37;23.85;;;10.75;;
16866;SDS011;8550;52.596;13.320;2023-07-29T04:49:42;15.13;;;6.50;;
16866;SDS011;8550;52.596;13.320;2023-07-29T04:54:43;12.40;;;6.00;;
16866;SDS011;8550;52.596;13.320;2023-07-29T04:59:47;10.77;;;5.35;;
16866;SDS011;8550;52.596;13.320;2023-07-29T05:04:49;10.73;;;5.73;;
16866;SDS011;8550;52.596;13.320;2023-07-29T05:09:51;9.35;;;4.90;;
16866;SDS011;8550;52.596;13.320;2023-07-29T05:14:54;9.07;;;5.10;;
16866;SDS011;8550;52.596;13.320;2023-07-29T05:19:56;7.93;;;4.50;;
16866;SDS011;8550;52.596;13.320;2023-07-29T05:24:58;7.80;;;4.50;;
16866;SDS011;8550;52.596;13.320;2023-07-29T05:30:02;10.30;;;4.97;;
16866;SDS011;8550;52.596;13.320;2023-07-29T05:35:04;8.63;;;4.70;;
16866;SDS011;8550;52.596;13.320;2023-07-29T05:40:07;7.03;;;4.20;;
16866;SDS011;8550;52.596;13.320;2023-07-29T05:45:12;9.85;;;4.60;;
16866;SDS011;8550;52.596;13.320;2023-07-29T05:50:14;6.78;;;3.55;;
16866;SDS011;8550;52.596;13.320;2023-07-29T05:55:16;6.93;;;3.73;;
16866;SDS011;8550;52.596;13.320;2023-07-29T06:00:19;7.93;;;3.80;;
16866;SDS011;8550;52.596;13.320;2023-07-29T06:05:21;7.63;;;3.97;;
16866;SDS011;8550;52.596;13.320;2023-07-29T06:10:23;6.50;;;3.53;;
16866;SDS011;8550;52.596;13.320;2023-07-29T06:15:27;6.47;;;3.03;;
16866;SDS011;8550;52.596;13.320;2023-07-29T06:20:28;6.72;;;3.22;;
16866;SDS011;8550;52.596;13.320;2023-07-29T06:25:30;7.53;;;4.28;;
16866;SDS011;8550;52.596;13.320;2023-07-29T06:30:34;7.13;;;3.47;;
16866;SDS011;8550;52.596;13.320;2023-07-29T06:35:36;6.30;;;3.30;;
16866;SDS011;8550;52.596;13.320;2023-07-29T06:40:38;7.05;;;3.42;;
16866;SDS011;8550;52.596;13.320;2023-07-29T06:45:41;6.70;;;3.53;;
16866;SDS011;8550;52.596;13.320;2023-07-29T06:50:43;6.32;;;3.10;;
16866;SDS011;8550;52.596;13.320;2023-07-29T06:55:45;6.70;;;4.03;;
16866;SDS011;8550;52.596;13.320;2023-07-29T07:00:48;5.53;;;2.93;;
16866;SDS011;8550;52.596;13.320;2023-07-29T07:05:50;7.93;;;3.40;;
16866;SDS011;8550;52.596;13.320;2023-07-29T07:10:52;5.88;;;3.42;;
16866;SDS011;8550;52.596;13.320;2023-07-29T07:15:56;6.65;;;3.47;;
16866;SDS011;8550;52.596;13.320;2023-07-29T07:20:58;5.37;;;2.70;;
16866;SDS011;8550;52.596;13.320;2023-07-29T07:26:00;7.00;;;3.00;;
16866;SDS011;8550;52.596;13.320;2023-07-29T07:31:03;6.00;;;3.30;;
16866;SDS011;8550;52.596;13.320;2023-07-29T07:36:05;6.90;;;3.50;;
16866;SDS011;8550;52.596;13.320;2023-07-29T07:41:07;5.63;;;2.80;;
16866;SDS011;8550;52.596;13.320;2023-07-29T07:46:10;6.25;;;3.33;;
16866;SDS011;8550;52.596;13.320;2023-07-29T07:51:12;10.20;;;3.23;;
16866;SDS011;8550;52.596;13.320;2023-07-29T07:56:14;7.53;;;3.73;;
16866;SDS011;8550;52.596;13.320;2023-07-29T08:01:18;5.57;;;3.35;;
16866;SDS011;8550;52.596;13.320;2023-07-29T08:06:20;6.28;;;3.65;;
16866;SDS011;8550;52.596;13.320;2023-07-29T08:11:22;5.10;;;2.53;;
16866;SDS011;8550;52.596;13.320;2023-07-29T08:16:25;5.70;;;3.28;;
16866;SDS011;8550;52.596;13.320;2023-07-29T08:21:27;5.55;;;2.85;;
16866;SDS011;8550;52.596;13.320;2023-07-29T08:26:29;4.80;;;2.60;;
16866;SDS011;8550;52.596;13.320;2023-07-29T08:31:32;5.68;;;2.45;;
16866;SDS011;8550;52.596;13.320;2023-07-29T08:36:34;8.43;;;4.47;;
16866;SDS011;8550;52.596;13.320;2023-07-29T08:41:37;5.00;;;2.40;;
16866;SDS011;8550;52.596;13.320;2023-07-29T08:46:44;3.87;;;2.07;;
16866;SDS011;8550;52.596;13.320;2023-07-29T08:51:47;4.55;;;2.05;;
16866;SDS011;8550;52.596;13.320;2023-07-29T08:56:49;4.93;;;2.20;;
16866;SDS011;8550;52.596;13.320;2023-07-29T09:01:53;4.27;;;2.13;;
16866;SDS011;8550;52.596;13.320;2023-07-29T09:06:57;5.15;;;2.05;;
16866;SDS011;8550;52.596;13.320;2023-07-29T09:12:00;4.72;;;2.33;;
16866;SDS011;8550;52.596;13.320;2023-07-29T09:17:06;4.57;;;2.07;;
16866;SDS011;8550;52.596;13.320;2023-07-29T09:22:16;4.32;;;1.88;;
16866;SDS011;8550;52.596;13.320;2023-07-29T09:27:23;4.38;;;1.80;;
16866;SDS011;8550;52.596;13.320;2023-07-29T09:32:26;3.70;;;1.67;;
16866;SDS011;8550;52.596;13.320;2023-07-29T09:37:28;3.90;;;2.20;;
16866;SDS011;8550;52.596;13.320;2023-07-29T09:42:31;4.03;;;2.10;;
16866;SDS011;8550;52.596;13.320;2023-07-29T09:47:34;4.07;;;2.03;;
16866;SDS011;8550;52.596;13.320;2023-07-29T09:52:36;5.13;;;1.97;;
16866;SDS011;8550;52.596;13.320;2023-07-29T09:57:38;3.58;;;1.88;;
16866;SDS011;8550;52.596;13.320;2023-07-29T10:02:42;5.68;;;2.10;;
16866;SDS011;8550;52.596;13.320;2023-07-29T10:07:45;5.30;;;1.80;;
16866;SDS011;8550;52.596;13.320;2023-07-29T10:12:48;3.97;;;1.73;;
16866;SDS011;8550;52.596;13.320;2023-07-29T10:17:52;4.63;;;1.77;;
16866;SDS011;8550;52.596;13.320;2023-07-29T10:22:55;3.73;;;1.83;;
16866;SDS011;8550;52.596;13.320;2023-07-29T10:28:00;5.13;;;2.50;;
16866;SDS011;8550;52.596;13.320;2023-07-29T10:33:07;3.92;;;2.03;;
16866;SDS011;8550;52.596;13.320;2023-07-29T10:38:10;4.30;;;2.03;;
16866;SDS011;8550;52.596;13.320;2023-07-29T10:43:12;6.27;;;1.90;;
16866;SDS011;8550;52.596;13.320;2023-07-29T10:48:40;8.15;;;2.30;;
16866;SDS011;8550;52.596;13.320;2023-07-29T10:53:43;7.63;;;2.75;;
16866;SDS011;8550;52.596;13.320;2023-07-29T10:58:45;7.40;;;2.50;;
16866;SDS011;8550;52.596;13.320;2023-07-29T11:04:01;3.00;;;1.20;;
16866;SDS011;8550;52.596;13.320;2023-07-29T11:09:39;3.85;;;1.05;;
16866;SDS011;8550;52.596;13.320;2023-07-29T11:14:41;4.63;;;1.30;;
16866;SDS011;8550;52.596;13.320;2023-07-29T11:25:41;4.70;;;1.48;;
16866;SDS011;8550;52.596;13.320;2023-07-29T11:30:43;5.38;;;1.83;;
16866;SDS011;8550;52.596;13.320;2023-07-29T11:35:45;5.43;;;1.70;;
16866;SDS011;8550;52.596;13.320;2023-07-29T11:40:55;4.97;;;1.92;;
16866;SDS011;8550;52.596;13.320;2023-07-29T11:45:58;5.32;;;1.83;;
16866;SDS011;8550;52.596;13.320;2023-07-29T11:51:03;4.00;;;1.53;;
16866;SDS011;8550;52.596;13.320;2023-07-29T11:56:06;5.65;;;2.13;;
16866;SDS011;8550;52.596;13.320;2023-07-29T12:01:08;4.82;;;1.80;;
16866;SDS011;8550;52.596;13.320;2023-07-29T12:06:11;5.20;;;2.20;;
16866;SDS011;8550;52.596;13.320;2023-07-29T12:11:15;4.17;;;1.90;;
16866;SDS011;8550;52.596;13.320;2023-07-29T12:16:17;4.35;;;1.90;;
16866;SDS011;8550;52.596;13.320;2023-07-29T12:21:19;5.75;;;2.65;;
16866;SDS011;8550;52.596;13.320;2023-07-29T12:26:22;5.73;;;2.13;;
16866;SDS011;8550;52.596;13.320;2023-07-29T12:31:30;6.57;;;2.75;;
16866;SDS011;8550;52.596;13.320;2023-07-29T12:36:42;4.85;;;2.00;;
16866;SDS011;8550;52.596;13.320;2023-07-29T12:41:47;5.03;;;2.47;;
16866;SDS011;8550;52.596;13.320;2023-07-29T12:46:49;5.40;;;1.70;;
16866;SDS011;8550;52.596;13.320;2023-07-29T12:51:51;3.83;;;1.60;;
16866;SDS011;8550;52.596;13.320;2023-07-29T12:56:54;3.97;;;2.00;;
16866;SDS011;8550;52.596;13.320;2023-07-29T13:01:56;4.57;;;2.33;;
16866;SDS011;8550;52.596;13.320;2023-07-29T13:06:58;4.80;;;1.95;;
16866;SDS011;8550;52.596;13.320;2023-07-29T13:12:02;4.43;;;1.63;;
16866;SDS011;8550;52.596;13.320;2023-07-29T13:17:04;4.50;;;1.70;;
16866;SDS011;8550;52.596;13.320;2023-07-29T13:22:06;4.40;;;1.92;;
16866;SDS011;8550;52.596;13.320;2023-07-29T13:27:10;3.03;;;1.52;;
16866;SDS011;8550;52.596;13.320;2023-07-29T13:32:12;2.67;;;1.20;;
16866;SDS011;8550;52.596;13.320;2023-07-29T13:37:13;2.70;;;1.15;;
16866;SDS011;8550;52.596;13.320;2023-07-29T13:42:17;2.90;;;1.30;;
16866;SDS011;8550;52.596;13.320;2023-07-29T13:47:18;3.37;;;1.20;;
16866;SDS011;8550;52.596;13.320;2023-07-29T13:52:20;3.47;;;1.47;;
16866;SDS011;8550;52.596;13.320;2023-07-29T13:57:24;5.30;;;1.02;;
16866;SDS011;8550;52.596;13.320;2023-07-29T14:02:26;3.95;;;1.88;;
16866;SDS011;8550;52.596;13.320;2023-07-29T14:07:27;1.97;;;0.87;;
16866;SDS011;8550;52.596;13.320;2023-07-29T14:12:31;2.05;;;1.00;;
16866;SDS011;8550;52.596;13.320;2023-07-29T14:17:33;3.38;;;1.00;;
16866;SDS011;8550;52.596;13.320;2023-07-29T14:22:35;2.37;;;0.90;;
16866;SDS011;8550;52.596;13.320;2023-07-29T14:27:38;2.65;;;1.02;;
16866;SDS011;8550;52.596;13.320;2023-07-29T14:32:40;3.33;;;1.35;;
16866;SDS011;8550;52.596;13.320;2023-07-29T14:37:42;2.57;;;0.87;;
16866;SDS011;8550;52.596;13.320;2023-07-29T14:42:45;1.77;;;0.90;;
16866;SDS011;8550;52.596;13.320;2023-07-29T14:47:47;2.65;;;1.23;;
16866;SDS011;8550;52.596;13.320;2023-07-29T14:52:49;2.60;;;1.10;;
16866;SDS011;8550;52.596;13.320;2023-07-29T14:57:52;1.77;;;0.90;;
16866;SDS011;8550;52.596;13.320;2023-07-29T15:02:54;2.35;;;1.10;;
16866;SDS011;8550;52.596;13.320;2023-07-29T15:07:56;2.10;;;1.15;;
16866;SDS011;8550;52.596;13.320;2023-07-29T15:12:59;2.53;;;1.00;;
16866;SDS011;8550;52.596;13.320;2023-07-29T15:18:02;2.15;;;0.93;;
16866;SDS011;8550;52.596;13.320;2023-07-29T15:23:04;2.38;;;1.00;;
16866;SDS011;8550;52.596;13.320;2023-07-29T15:28:07;16.10;;;8.90;;
16866;SDS011;8550;52.596;13.320;2023-07-29T15:33:09;4.53;;;1.83;;
16866;SDS011;8550;52.596;13.320;2023-07-29T15:38:11;2.53;;;1.02;;
16866;SDS011;8550;52.596;13.320;2023-07-29T15:43:14;2.60;;;0.93;;
16866;SDS011;8550;52.596;13.320;2023-07-29T15:48:16;4.00;;;0.93;;
16866;SDS011;8550;52.596;13.320;2023-07-29T15:53:18;4.18;;;1.20;;
16866;SDS011;8550;52.596;13.320;2023-07-29T15:58:22;3.60;;;1.00;;
16866;SDS011;8550;52.596;13.320;2023-07-29T16:03:24;15.47;;;3.07;;
16866;SDS011;8550;52.596;13.320;2023-07-29T16:08:26;9.40;;;2.50;;
16866;SDS011;8550;52.596;13.320;2023-07-29T16:13:29;3.45;;;1.10;;
16866;SDS011;8550;52.596;13.320;2023-07-29T16:18:31;3.07;;;1.27;;
16866;SDS011;8550;52.596;13.320;2023-07-29T16:23:33;3.13;;;1.20;;
16866;SDS011;8550;52.596;13.320;2023-07-29T16:28:37;3.45;;;1.17;;
16866;SDS011;8550;52.596;13.320;2023-07-29T16:33:41;2.25;;;0.77;;
16866;SDS011;8550;52.596;13.320;2023-07-29T16:38:43;3.23;;;0.90;;
16866;SDS011;8550;52.596;13.320;2023-07-29T16:43:46;7.13;;;1.52;;
16866;SDS011;8550;52.596;13.320;2023-07-29T16:48:48;3.15;;;1.15;;
16866;SDS011;8550;52.596;13.320;2023-07-29T16:53:50;4.00;;;1.40;;
16866;SDS011;8550;52.596;13.320;2023-07-29T16:58:54;4.22;;;1.20;;
16866;SDS011;8550;52.596;13.320;2023-07-29T17:03:56;3.55;;;1.10;;
16866;SDS011;8550;52.596;13.320;2023-07-29T17:08:58;2.80;;;1.17;;
16866;SDS011;8550;52.596;13.320;2023-07-29T17:14:01;3.00;;;1.50;;
16866;SDS011;8550;52.596;13.320;2023-07-29T17:19:03;3.15;;;1.40;;
16866;SDS011;8550;52.596;13.320;2023-07-29T17:24:05;13.95;;;8.15;;
16866;SDS011;8550;52.596;13.320;2023-07-29T17:29:08;4.53;;;1.90;;
16866;SDS011;8550;52.596;13.320;2023-07-29T17:34:10;5.88;;;1.95;;
16866;SDS011;8550;52.596;13.320;2023-07-29T17:39:12;4.63;;;1.90;;
16866;SDS011;8550;52.596;13.320;2023-07-29T17:44:15;4.47;;;1.90;;
16866;SDS011;8550;52.596;13.320;2023-07-29T17:49:17;3.97;;;1.80;;
16866;SDS011;8550;52.596;13.320;2023-07-29T17:54:19;4.50;;;1.98;;
16866;SDS011;8550;52.596;13.320;2023-07-29T17:59:22;5.20;;;2.70;;
16866;SDS011;8550;52.596;13.320;2023-07-29T18:04:24;6.47;;;2.40;;
16866;SDS011;8550;52.596;13.320;2023-07-29T18:09:26;5.03;;;2.75;;
16866;SDS011;8550;52.596;13.320;2023-07-29T18:14:30;5.00;;;2.70;;
16866;SDS011;8550;52.596;13.320;2023-07-29T18:19:32;4.63;;;2.10;;
16866;SDS011;8550;52.596;13.320;2023-07-29T18:24:33;4.55;;;2.03;;
16866;SDS011;8550;52.596;13.320;2023-07-29T18:29:38;5.85;;;2.08;;
16866;SDS011;8550;52.596;13.320;2023-07-29T18:34:40;5.73;;;2.60;;
16866;SDS011;8550;52.596;13.320;2023-07-29T18:39:42;5.10;;;2.03;;
16866;SDS011;8550;52.596;13.320;2023-07-29T18:44:45;4.82;;;2.40;;
16866;SDS011;8550;52.596;13.320;2023-07-29T18:49:47;5.03;;;2.10;;
16866;SDS011;8550;52.596;13.320;2023-07-29T18:54:49;5.50;;;2.50;;
16866;SDS011;8550;52.596;13.320;2023-07-29T18:59:52;4.80;;;2.08;;
16866;SDS011;8550;52.596;13.320;2023-07-29T19:04:54;5.03;;;2.50;;
16866;SDS011;8550;52.596;13.320;2023-07-29T19:09:57;5.73;;;2.20;;
16866;SDS011;8550;52.596;13.320;2023-07-29T19:15:00;4.65;;;2.22;;
16866;SDS011;8550;52.596;13.320;2023-07-29T19:20:02;3.97;;;1.98;;
16866;SDS011;8550;52.596;13.320;2023-07-29T19:25:06;5.80;;;2.30;;
16866;SDS011;8550;52.596;13.320;2023-07-29T19:30:11;4.00;;;1.95;;
16866;SDS011;8550;52.596;13.320;2023-07-29T19:35:14;5.43;;;2.60;;
16866;SDS011;8550;52.596;13.320;2023-07-29T19:40:16;5.27;;;1.90;;
16866;SDS011;8550;52.596;13.320;2023-07-29T19:45:19;4.93;;;2.70;;
16866;SDS011;8550;52.596;13.320;2023-07-29T19:50:21;6.07;;;2.63;;
16866;SDS011;8550;52.596;13.320;2023-07-29T19:55:23;5.80;;;2.70;;
16866;SDS011;8550;52.596;13.320;2023-07-29T20:00:27;5.87;;;2.53;;
16866;SDS011;8550;52.596;13.320;2023-07-29T20:05:28;6.63;;;2.90;;
16866;SDS011;8550;52.596;13.320;2023-07-29T20:10:31;5.85;;;3.03;;
16866;SDS011;8550;52.596;13.320;2023-07-29T20:15:34;6.93;;;3.70;;
16866;SDS011;8550;52.596;13.320;2023-07-29T20:20:36;6.82;;;3.85;;
16866;SDS011;8550;52.596;13.320;2023-07-29T20:25:38;7.40;;;3.40;;
16866;SDS011;8550;52.596;13.320;2023-07-29T20:30:41;5.90;;;3.20;;
16866;SDS011;8550;52.596;13.320;2023-07-29T20:35:43;8.27;;;3.60;;
16866;SDS011;8550;52.596;13.320;2023-07-29T20:40:53;7.68;;;3.50;;
16866;SDS011;8550;52.596;13.320;2023-07-29T20:45:57;8.80;;;4.30;;
16866;SDS011;8550;52.596;13.320;2023-07-29T20:50:59;10.20;;;3.43;;
16866;SDS011;8550;52.596;13.320;2023-07-29T20:56:01;6.93;;;4.63;;
16866;SDS011;8550;52.596;13.320;2023-07-29T21:01:04;6.53;;;3.58;;
16866;SDS011;8550;52.596;13.320;2023-07-29T21:06:08;7.23;;;3.40;;
16866;SDS011;8550;52.596;13.320;2023-07-29T21:11:11;5.68;;;3.03;;
16866;SDS011;8550;52.596;13.320;2023-07-29T21:16:14;10.65;;;3.83;;
16866;SDS011;8550;52.596;13.320;2023-07-29T21:21:17;5.77;;;3.10;;
16866;SDS011;8550;52.596;13.320;2023-07-29T21:26:19;6.00;;;2.90;;
16866;SDS011;8550;52.596;13.320;2023-07-29T21:31:22;6.97;;;3.05;;
16866;SDS011;8550;52.596;13.320;2023-07-29T21:36:24;5.40;;;2.42;;
16866;SDS011;8550;52.596;13.320;2023-07-29T21:41:26;6.20;;;3.23;;
16866;SDS011;8550;52.596;13.320;2023-07-29T21:46:29;8.25;;;3.05;;
16866;SDS011;8550;52.596;13.320;2023-07-29T21:51:32;7.05;;;2.95;;
16866;SDS011;8550;52.596;13.320;2023-07-29T21:56:34;10.27;;;5.47;;
16866;SDS011;8550;52.596;13.320;2023-07-29T22:01:37;8.60;;;3.88;;
16866;SDS011;8550;52.596;13.320;2023-07-29T22:06:39;6.88;;;3.38;;
16866;SDS011;8550;52.596;13.320;2023-07-29T22:11:41;6.80;;;3.43;;
16866;SDS011;8550;52.596;13.320;2023-07-29T22:16:44;8.87;;;2.77;;
16866;SDS011;8550;52.596;13.320;2023-07-29T22:21:46;7.40;;;2.67;;
16866;SDS011;8550;52.596;13.320;2023-07-29T22:26:50;7.65;;;3.13;;
16866;SDS011;8550;52.596;13.320;2023-07-29T22:31:53;7.53;;;2.90;;
16866;SDS011;8550;52.596;13.320;2023-07-29T22:36:55;8.13;;;3.80;;
16866;SDS011;8550;52.596;13.320;2023-07-29T22:41:58;5.78;;;3.03;;
16866;SDS011;8550;52.596;13.320;2023-07-29T22:47:01;5.83;;;2.83;;
16866;SDS011;8550;52.596;13.320;2023-07-29T22:52:05;7.60;;;3.22;;
16866;SDS011;8550;52.596;13.320;2023-07-29T22:57:07;6.28;;;2.72;;
16866;SDS011;8550;52.596;13.320;2023-07-29T23:02:10;5.13;;;2.60;;
16866;SDS011;8550;52.596;13.320;2023-07-29T23:07:12;5.50;;;2.80;;
16866;SDS011;8550;52.596;13.320;2023-07-29T23:12:15;9.13;;;3.17;;
16866;SDS011;8550;52.596;13.320;2023-07-29T23:17:18;5.80;;;2.95;;
16866;SDS011;8550;52.596;13.320;2023-07-29T23:22:21;5.30;;;2.60;;
16866;SDS011;8550;52.596;13.320;2023-07-29T23:27:23;7.43;;;2.97;;
16866;SDS011;8550;52.596;13.320;2023-07-29T23:32:26;8.95;;;3.10;;
16866;SDS011;8550;52.596;13.320;2023-07-29T23:37:28;8.27;;;3.03;;
16866;SDS011;8550;52.596;13.320;2023-07-29T23:42:30;5.40;;;2.63;;
16866;SDS011;8550;52.596;13.320;2023-07-29T23:47:33;6.22;;;2.45;;
16866;SDS011;8550;52.596;13.320;2023-07-29T23:52:35;7.43;;;2.80;;
16866;SDS011;8550;52.596;13.320;2023-07-29T23:57:37;7.50;;;3.23;;
